Time;durP1;ratioP1;P1;durP2;ratioP2;P2;SDS_P1;SDS_P2;PMS_P1;PMS_P2;Temp;Humidity;BMP_temperature;BMP_pressure;BME280_temperature;BME280_humidity;BME280_pressure;Samples;Min_cycle;Max_cycle;Signal;HPM_P1;HPM_P2
2021/09/23 00:01:17;;;;;;;0.10;0.10;;;;;;;;;;5079643;28;20124;-91
2021/09/23 00:06:20;;;;;;;0.30;0.20;;;;;;;;;;5098049;28;20418;-90
2021/09/23 00:08:46;;;;;;;0.10;0.10;;;;;;;;;;5079347;28;20043;-90
2021/09/23 00:11:12;;;;;;;0.80;0.22;;;;;;;;;;5096036;28;20145;-90
2021/09/23 00:13:38;;;;;;;0.20;0.20;;;;;;;;;;5113050;28;20446;-90
2021/09/23 00:16:04;;;;;;;0.10;0.10;;;;;;;;;;5095775;28;20409;-89
2021/09/23 00:18:31;;;;;;;0.10;0.10;;;;;;;;;;5078780;28;20039;-90
2021/09/23 00:20:57;;;;;;;0.10;0.10;;;;;;;;;;5095627;28;20036;-89
2021/09/23 00:23:23;;;;;;;0.17;0.17;;;;;;;;;;5095728;28;20492;-89
2021/09/23 00:25:49;;;;;;;0.10;0.10;;;;;;;;;;5112370;28;20538;-89
2021/09/23 00:28:15;;;;;;;0.20;0.20;;;;;;;;;;5095753;28;20082;-91
2021/09/23 00:30:41;;;;;;;0.10;0.10;;;;;;;;;;5112824;28;20043;-91
2021/09/23 00:33:07;;;;;;;1.88;0.95;;;;;;;;;;5095967;28;20203;-90
2021/09/23 00:35:33;;;;;;;0.10;0.10;;;;;;;;;;5095301;28;20062;-90
2021/09/23 00:37:59;;;;;;;0.10;0.10;;;;;;;;;;5112608;28;20048;-90
2021/09/23 00:40:25;;;;;;;0.10;0.10;;;;;;;;;;5112928;28;20364;-91
2021/09/23 00:42:50;;;;;;;0.10;0.10;;;;;;;;;;5095528;28;20047;-90
2021/09/23 00:45:17;;;;;;;0.10;0.10;;;;;;;;;;5078133;28;20042;-90
2021/09/23 00:47:43;;;;;;;0.20;0.20;;;;;;;;;;5095764;28;20032;-90
2021/09/23 00:50:10;;;;;;;0.10;0.10;;;;;;;;;;5094726;28;20441;-90
2021/09/23 00:52:36;;;;;;;0.10;0.10;;;;;;;;;;5078446;28;20036;-90
2021/09/23 00:55:02;;;;;;;0.28;0.28;;;;;;;;;;5095210;28;20036;-89
2021/09/23 00:57:28;;;;;;;0.10;0.10;;;;;;;;;;5095014;28;20114;-91
2021/09/23 00:59:55;;;;;;;0.20;0.20;;;;;;;;;;5095098;28;20153;-91
2021/09/23 01:02:21;;;;;;;0.40;0.40;;;;;;;;;;5078728;28;20126;-91
2021/09/23 01:04:47;;;;;;;0.20;0.20;;;;;;;;;;5095634;28;20071;-91
2021/09/23 01:07:14;;;;;;;0.10;0.10;;;;;;;;;;5095068;28;20040;-91
2021/09/23 01:09:43;;;;;;;0.10;0.10;;;;;;;;;;5078262;28;20104;-90
2021/09/23 01:12:09;;;;;;;0.30;0.30;;;;;;;;;;5095148;28;20035;-90
2021/09/23 01:14:35;;;;;;;0.20;0.20;;;;;;;;;;5077907;28;20378;-90
2021/09/23 01:17:03;;;;;;;0.15;0.15;;;;;;;;;;5078123;28;20054;-89
2021/09/23 01:19:29;;;;;;;0.10;0.10;;;;;;;;;;5078035;28;20048;-90
2021/09/23 01:21:55;;;;;;;0.10;0.10;;;;;;;;;;5094658;28;20032;-90
2021/09/23 01:24:21;;;;;;;0.10;0.10;;;;;;;;;;5111586;28;20062;-89
2021/09/23 01:26:50;;;;;;;0.10;0.10;;;;;;;;;;5094688;28;20040;-90
2021/09/23 01:29:16;;;;;;;0.10;0.10;;;;;;;;;;5077909;28;20384;-90
2021/09/23 01:31:41;;;;;;;0.10;0.10;;;;;;;;;;5094646;28;20112;-90
2021/09/23 01:34:07;;;;;;;0.13;0.13;;;;;;;;;;5094814;28;20039;-91
2021/09/23 01:36:33;;;;;;;0.10;0.10;;;;;;;;;;5094495;28;20131;-90
2021/09/23 01:38:59;;;;;;;0.10;0.10;;;;;;;;;;5094410;28;20051;-90
2021/09/23 01:41:25;;;;;;;0.47;0.47;;;;;;;;;;5094387;28;20047;-89
2021/09/23 01:43:51;;;;;;;0.10;0.10;;;;;;;;;;5094423;28;20084;-90
2021/09/23 01:46:17;;;;;;;0.45;0.45;;;;;;;;;;5110996;28;20035;-90
2021/09/23 01:48:43;;;;;;;0.10;0.10;;;;;;;;;;5094283;28;20117;-90
2021/09/23 01:51:09;;;;;;;0.55;0.40;;;;;;;;;;5111375;28;20043;-90
2021/09/23 01:53:35;;;;;;;0.10;0.10;;;;;;;;;;5077505;28;20047;-90
2021/09/23 01:56:01;;;;;;;0.20;0.20;;;;;;;;;;5077453;28;20043;-90
2021/09/23 01:58:27;;;;;;;0.10;0.10;;;;;;;;;;5093956;28;20518;-89
2021/09/23 02:00:53;;;;;;;0.10;0.10;;;;;;;;;;5094811;28;20067;-89
2021/09/23 02:03:19;;;;;;;0.10;0.10;;;;;;;;;;5115333;28;20031;-89
2021/09/23 02:05:45;;;;;;;0.10;0.10;;;;;;;;;;5098863;28;20043;-89
2021/09/23 02:08:11;;;;;;;0.47;0.20;;;;;;;;;;5098751;28;20047;-90
2021/09/23 02:10:37;;;;;;;0.55;0.50;;;;;;;;;;5098541;28;20035;-90
2021/09/23 02:13:03;;;;;;;0.20;0.20;;;;;;;;;;5098333;28;20054;-89
2021/09/23 02:15:29;;;;;;;0.30;0.30;;;;;;;;;;5098089;28;20199;-90
2021/09/23 02:17:55;;;;;;;0.10;0.10;;;;;;;;;;5080939;28;20039;-90
2021/09/23 02:20:20;;;;;;;0.10;0.10;;;;;;;;;;5081153;28;20471;-90
2021/09/23 02:22:46;;;;;;;0.20;0.20;;;;;;;;;;5115153;28;20452;-90
2021/09/23 02:25:12;;;;;;;0.10;0.10;;;;;;;;;;5097637;28;20054;-89
2021/09/23 02:27:38;;;;;;;0.38;0.38;;;;;;;;;;5098188;28;20486;-89
2021/09/23 02:30:05;;;;;;;0.10;0.10;;;;;;;;;;5080840;28;20039;-89
2021/09/23 02:32:31;;;;;;;0.20;0.20;;;;;;;;;;5097866;28;20370;-89
2021/09/23 02:34:57;;;;;;;0.20;0.20;;;;;;;;;;5080715;28;20066;-90
2021/09/23 02:37:24;;;;;;;0.20;0.20;;;;;;;;;;5097648;28;20043;-90
2021/09/23 02:39:50;;;;;;;0.20;0.20;;;;;;;;;;5080830;28;20044;-89
2021/09/23 02:42:16;;;;;;;0.20;0.20;;;;;;;;;;5098030;28;20031;-89
2021/09/23 02:44:42;;;;;;;0.10;0.10;;;;;;;;;;5080552;28;20135;-90
2021/09/23 02:47:08;;;;;;;0.30;0.30;;;;;;;;;;5080838;28;20483;-90
2021/09/23 02:49:34;;;;;;;0.22;0.22;;;;;;;;;;5081591;28;20044;-91
2021/09/23 02:52:00;;;;;;;0.73;0.47;;;;;;;;;;5098047;28;20061;-91
2021/09/23 02:54:26;;;;;;;0.10;0.10;;;;;;;;;;5080767;28;20039;-90
2021/09/23 02:56:52;;;;;;;0.20;0.20;;;;;;;;;;5097566;28;20039;-90
2021/09/23 02:59:18;;;;;;;0.10;0.10;;;;;;;;;;5097628;28;20036;-90
2021/09/23 03:01:44;;;;;;;0.32;0.20;;;;;;;;;;5080666;28;20115;-90
2021/09/23 03:04:10;;;;;;;0.35;0.35;;;;;;;;;;5080631;28;20084;-91
2021/09/23 03:06:36;;;;;;;1.35;0.85;;;;;;;;;;5080744;28;20035;-91
2021/09/23 03:09:02;;;;;;;0.30;0.30;;;;;;;;;;5080501;28;20048;-90
2021/09/23 03:11:28;;;;;;;0.10;0.10;;;;;;;;;;5080513;28;20069;-90
2021/09/23 03:13:54;;;;;;;0.15;0.15;;;;;;;;;;5096847;28;20047;-90
2021/09/23 03:16:20;;;;;;;0.30;0.30;;;;;;;;;;5080521;28;20481;-90
2021/09/23 03:18:47;;;;;;;0.20;0.20;;;;;;;;;;5114414;28;20039;-90
2021/09/23 03:21:13;;;;;;;0.32;0.32;;;;;;;;;;5097262;28;20043;-90
2021/09/23 03:23:39;;;;;;;0.10;0.10;;;;;;;;;;5080500;28;20398;-90
2021/09/23 03:26:05;;;;;;;0.10;0.10;;;;;;;;;;5114046;28;20036;-90
2021/09/23 03:28:31;;;;;;;0.10;0.10;;;;;;;;;;5080107;28;20501;-90
2021/09/23 03:30:58;;;;;;;0.10;0.10;;;;;;;;;;5096792;28;20047;-90
2021/09/23 03:33:24;;;;;;;0.47;0.47;;;;;;;;;;5096692;28;20040;-89
2021/09/23 03:35:50;;;;;;;0.52;0.52;;;;;;;;;;5113098;28;20055;-89
2021/09/23 03:38:16;;;;;;;0.30;0.30;;;;;;;;;;5079773;28;20071;-89
2021/09/23 03:40:45;;;;;;;0.10;0.10;;;;;;;;;;5097516;28;20046;-93
2021/09/23 03:43:11;;;;;;;0.30;0.30;;;;;;;;;;5081058;28;20142;-89
2021/09/23 03:45:37;;;;;;;0.25;0.25;;;;;;;;;;5079330;28;20427;-89
2021/09/23 03:48:03;;;;;;;0.10;0.10;;;;;;;;;;5096082;28;20548;-89
2021/09/23 03:50:29;;;;;;;1.27;0.30;;;;;;;;;;5096071;28;20046;-89
2021/09/23 03:52:55;;;;;;;0.10;0.10;;;;;;;;;;5079480;28;20126;-90
2021/09/23 03:55:21;;;;;;;0.10;0.10;;;;;;;;;;5096286;28;20050;-89
2021/09/23 03:57:47;;;;;;;0.10;0.10;;;;;;;;;;5096230;28;20039;-89
2021/09/23 04:00:13;;;;;;;0.63;0.63;;;;;;;;;;5095804;28;20040;-90
2021/09/23 04:02:39;;;;;;;0.85;0.55;;;;;;;;;;5096274;28;20120;-90
2021/09/23 04:05:06;;;;;;;0.10;0.10;;;;;;;;;;5095869;28;20046;-89
2021/09/23 04:07:31;;;;;;;0.10;0.10;;;;;;;;;;5095788;28;20050;-90
2021/09/23 04:09:57;;;;;;;0.30;0.30;;;;;;;;;;5079118;28;20040;-89
2021/09/23 04:12:23;;;;;;;0.10;0.10;;;;;;;;;;5095944;28;20071;-89
2021/09/23 04:14:49;;;;;;;0.43;0.28;;;;;;;;;;5095618;28;20100;-88
2021/09/23 04:17:18;;;;;;;0.30;0.30;;;;;;;;;;5079110;28;20043;-87
2021/09/23 04:19:44;;;;;;;0.55;0.32;;;;;;;;;;5095462;28;20290;-90
2021/09/23 04:22:10;;;;;;;0.80;0.80;;;;;;;;;;5078632;28;20075;-89
2021/09/23 04:24:36;;;;;;;0.63;0.28;;;;;;;;;;5111894;28;20046;-89
2021/09/23 04:27:02;;;;;;;0.20;0.20;;;;;;;;;;5095597;28;20032;-89
2021/09/23 04:29:28;;;;;;;0.10;0.10;;;;;;;;;;5095485;28;20104;-90
2021/09/23 04:31:54;;;;;;;0.30;0.30;;;;;;;;;;5096163;28;20555;-90
2021/09/23 04:34:20;;;;;;;0.15;0.15;;;;;;;;;;5112485;28;20100;-89
2021/09/23 04:36:47;;;;;;;0.10;0.10;;;;;;;;;;5095403;28;20055;-89
2021/09/23 04:39:13;;;;;;;0.20;0.20;;;;;;;;;;5078558;28;20050;-91
2021/09/23 04:41:39;;;;;;;0.38;0.38;;;;;;;;;;5095358;28;20039;-90
2021/09/23 04:44:05;;;;;;;0.10;0.10;;;;;;;;;;5095396;28;20052;-89
2021/09/23 04:46:31;;;;;;;0.38;0.38;;;;;;;;;;5095336;28;20031;-90
2021/09/23 04:48:57;;;;;;;0.98;0.40;;;;;;;;;;5095310;28;20035;-89
2021/09/23 04:51:23;;;;;;;0.20;0.20;;;;;;;;;;5095505;28;20081;-89
2021/09/23 04:53:49;;;;;;;0.22;0.22;;;;;;;;;;5078321;28;20085;-89
2021/09/23 04:56:15;;;;;;;0.10;0.10;;;;;;;;;;5078201;28;20043;-89
2021/09/23 04:58:41;;;;;;;0.20;0.20;;;;;;;;;;5078184;28;20126;-90
2021/09/23 05:01:07;;;;;;;0.20;0.20;;;;;;;;;;5095079;28;20035;-90
2021/09/23 05:03:33;;;;;;;0.28;0.28;;;;;;;;;;5112054;28;20089;-90
2021/09/23 05:05:59;;;;;;;0.20;0.20;;;;;;;;;;5095183;28;20133;-90
2021/09/23 05:08:25;;;;;;;0.10;0.10;;;;;;;;;;5111944;28;20050;-90
2021/09/23 05:10:51;;;;;;;0.10;0.10;;;;;;;;;;5077895;28;20537;-90
2021/09/23 05:13:17;;;;;;;0.10;0.10;;;;;;;;;;5094857;28;20190;-90
2021/09/23 05:15:43;;;;;;;0.10;0.10;;;;;;;;;;5111707;28;20036;-89
2021/09/23 05:18:13;;;;;;;0.13;0.13;;;;;;;;;;5094624;28;20039;-90
2021/09/23 05:20:38;;;;;;;0.20;0.20;;;;;;;;;;5094891;28;20080;-91
2021/09/23 05:23:05;;;;;;;0.15;0.15;;;;;;;;;;5094848;28;20049;-89
2021/09/23 05:25:31;;;;;;;0.10;0.10;;;;;;;;;;5077649;28;20673;-89
2021/09/23 05:27:57;;;;;;;0.20;0.20;;;;;;;;;;5094679;28;20119;-89
2021/09/23 05:30:23;;;;;;;0.22;0.20;;;;;;;;;;5094611;28;20122;-90
2021/09/23 05:32:49;;;;;;;0.10;0.10;;;;;;;;;;5077909;28;20139;-89
2021/09/23 05:35:15;;;;;;;0.10;0.10;;;;;;;;;;5077744;28;20055;-90
2021/09/23 05:37:41;;;;;;;0.10;0.10;;;;;;;;;;5094420;28;20044;-88
2021/09/23 05:40:07;;;;;;;0.63;0.63;;;;;;;;;;5094474;28;20043;-90
2021/09/23 05:42:33;;;;;;;0.35;0.30;;;;;;;;;;5111570;28;20039;-90
2021/09/23 05:44:59;;;;;;;0.57;0.57;;;;;;;;;;5094521;28;20088;-88
2021/09/23 05:47:25;;;;;;;0.10;0.10;;;;;;;;;;5097707;28;20097;-87
2021/09/23 05:49:51;;;;;;;0.20;0.20;;;;;;;;;;5102758;28;20055;-88
2021/09/23 05:52:17;;;;;;;0.10;0.10;;;;;;;;;;5123328;28;20131;-89
2021/09/23 05:54:43;;;;;;;0.20;0.20;;;;;;;;;;5108965;28;20028;-89
2021/09/23 05:57:09;;;;;;;0.10;0.10;;;;;;;;;;5091469;28;20067;-87
2021/09/23 05:59:35;;;;;;;0.45;0.45;;;;;;;;;;5118480;28;20031;-88
2021/09/23 06:02:01;;;;;;;0.20;0.20;;;;;;;;;;5118072;28;20075;-87
2021/09/23 06:04:27;;;;;;;0.10;0.10;;;;;;;;;;5108683;28;20043;-88
2021/09/23 06:06:53;;;;;;;0.10;0.10;;;;;;;;;;5077175;28;20036;-88
2021/09/23 06:09:19;;;;;;;0.10;0.10;;;;;;;;;;5093989;28;20118;-87
2021/09/23 06:11:46;;;;;;;0.10;0.10;;;;;;;;;;5093856;28;20035;-90
2021/09/23 06:14:12;;;;;;;0.20;0.20;;;;;;;;;;5111540;28;20036;-91
2021/09/23 06:16:38;;;;;;;0.38;0.38;;;;;;;;;;5095098;28;20443;-90
2021/09/23 06:19:03;;;;;;;0.10;0.10;;;;;;;;;;5094156;28;20050;-90
2021/09/23 06:21:30;;;;;;;1.90;0.65;;;;;;;;;;5095967;28;20165;-94
2021/09/23 06:23:56;;;;;;;0.10;0.10;;;;;;;;;;5094883;28;20278;-89
2021/09/23 06:26:22;;;;;;;0.10;0.10;;;;;;;;;;5077204;28;20278;-88
2021/09/23 06:28:49;;;;;;;0.10;0.10;;;;;;;;;;5077347;28;20043;-90
2021/09/23 06:31:15;;;;;;;0.10;0.10;;;;;;;;;;5077489;28;20047;-90
2021/09/23 06:33:42;;;;;;;0.13;0.13;;;;;;;;;;5094440;28;20467;-91
2021/09/23 06:36:08;;;;;;;0.10;0.10;;;;;;;;;;5094605;28;20068;-91
2021/09/23 06:38:34;;;;;;;0.20;0.20;;;;;;;;;;5093673;28;20077;-88
2021/09/23 06:41:00;;;;;;;0.10;0.10;;;;;;;;;;5110789;28;20055;-88
2021/09/23 06:43:26;;;;;;;0.20;0.20;;;;;;;;;;5078374;28;20050;-89
2021/09/23 06:45:52;;;;;;;0.10;0.10;;;;;;;;;;5093648;28;20130;-90
2021/09/23 06:48:18;;;;;;;0.20;0.20;;;;;;;;;;5094919;28;20136;-91
2021/09/23 06:50:44;;;;;;;0.10;0.10;;;;;;;;;;5098412;28;20040;-91
2021/09/23 06:53:10;;;;;;;1.00;1.00;;;;;;;;;;5098321;28;20043;-92
2021/09/23 06:55:36;;;;;;;0.28;0.25;;;;;;;;;;5081849;28;20055;-91
2021/09/23 06:58:02;;;;;;;0.10;0.10;;;;;;;;;;5082079;28;20136;-91
2021/09/23 07:00:28;;;;;;;0.10;0.10;;;;;;;;;;5098727;28;20047;-92
2021/09/23 07:02:54;;;;;;;0.10;0.10;;;;;;;;;;5099589;28;20100;-92
2021/09/23 07:05:20;;;;;;;0.10;0.10;;;;;;;;;;5118309;28;20463;-94
2021/09/23 07:07:49;;;;;;;0.30;0.30;;;;;;;;;;5087058;28;20076;-93
2021/09/23 07:10:18;;;;;;;0.20;0.20;;;;;;;;;;5088002;28;20035;-94
2021/09/23 07:12:44;;;;;;;0.20;0.20;;;;;;;;;;5119069;28;20047;-94
2021/09/23 07:15:10;;;;;;;0.10;0.10;;;;;;;;;;5104087;28;20395;-95
2021/09/23 07:17:36;;;;;;;0.20;0.20;;;;;;;;;;5102890;28;20189;-93
2021/09/23 07:20:03;;;;;;;0.10;0.10;;;;;;;;;;5100688;28;20608;-93
2021/09/23 07:22:29;;;;;;;0.10;0.10;;;;;;;;;;5082761;28;20040;-96
2021/09/23 07:24:55;;;;;;;0.20;0.20;;;;;;;;;;5082738;28;20428;-92
2021/09/23 07:27:21;;;;;;;0.10;0.10;;;;;;;;;;5081700;28;20050;-90
2021/09/23 07:29:47;;;;;;;0.50;0.50;;;;;;;;;;5097508;28;20116;-93
2021/09/23 07:32:15;;;;;;;0.10;0.10;;;;;;;;;;5083282;28;20402;-96
2021/09/23 07:34:41;;;;;;;0.65;0.65;;;;;;;;;;5100163;28;20071;-95
2021/09/23 07:37:07;;;;;;;0.10;0.10;;;;;;;;;;5081675;28;20073;-94
2021/09/23 07:39:34;;;;;;;0.63;0.35;;;;;;;;;;5082133;28;20134;-94
2021/09/23 07:42:00;;;;;;;0.10;0.10;;;;;;;;;;5098331;28;20036;-91
2021/09/23 07:44:26;;;;;;;0.10;0.10;;;;;;;;;;5096830;28;20040;-90
2021/09/23 07:46:54;;;;;;;0.10;0.10;;;;;;;;;;5096815;28;20455;-89
2021/09/23 07:49:20;;;;;;;0.20;0.20;;;;;;;;;;5079445;28;20032;-88
2021/09/23 07:51:46;;;;;;;0.25;0.25;;;;;;;;;;5096049;28;20039;-89
2021/09/23 07:54:12;;;;;;;0.15;0.15;;;;;;;;;;5113377;28;20035;-90
2021/09/23 07:56:38;;;;;;;0.32;0.32;;;;;;;;;;5113319;28;20118;-91
2021/09/23 07:59:04;;;;;;;0.22;0.22;;;;;;;;;;5096187;28;20071;-90
2021/09/23 08:01:30;;;;;;;0.20;0.20;;;;;;;;;;5096215;28;20104;-90
2021/09/23 08:03:56;;;;;;;0.10;0.10;;;;;;;;;;5096272;28;20167;-90
2021/09/23 08:06:22;;;;;;;0.10;0.10;;;;;;;;;;5096354;28;20078;-90
2021/09/23 08:08:48;;;;;;;0.20;0.20;;;;;;;;;;5079568;28;20042;-91
2021/09/23 08:11:14;;;;;;;0.10;0.10;;;;;;;;;;5096617;28;20092;-92
2021/09/23 08:13:42;;;;;;;0.22;0.22;;;;;;;;;;5080244;28;20051;-92
2021/09/23 08:16:08;;;;;;;0.15;0.15;;;;;;;;;;5096428;28;20093;-92
2021/09/23 08:18:34;;;;;;;0.15;0.15;;;;;;;;;;5079453;28;20044;-91
2021/09/23 08:21:01;;;;;;;0.10;0.10;;;;;;;;;;5096697;28;20096;-91
2021/09/23 08:23:27;;;;;;;0.20;0.20;;;;;;;;;;5096519;28;20478;-92
2021/09/23 08:25:53;;;;;;;0.10;0.10;;;;;;;;;;5096501;28;20044;-92
2021/09/23 08:28:23;;;;;;;0.25;0.20;;;;;;;;;;5079469;28;20432;-92
2021/09/23 08:30:49;;;;;;;0.20;0.20;;;;;;;;;;5096771;28;20040;-92
2021/09/23 08:33:16;;;;;;;0.10;0.10;;;;;;;;;;5078962;28;20124;-90
2021/09/23 08:35:42;;;;;;;0.10;0.10;;;;;;;;;;5095935;28;20523;-93
2021/09/23 08:38:08;;;;;;;0.10;0.10;;;;;;;;;;5096049;28;20221;-91
2021/09/23 08:40:34;;;;;;;0.10;0.10;;;;;;;;;;5096093;28;20104;-91
2021/09/23 08:43:00;;;;;;;0.10;0.10;;;;;;;;;;5095796;28;20040;-91
2021/09/23 08:45:26;;;;;;;0.17;0.17;;;;;;;;;;5095687;28;20080;-91
2021/09/23 08:47:52;;;;;;;0.20;0.20;;;;;;;;;;5078741;28;20044;-92
2021/09/23 08:50:18;;;;;;;0.20;0.20;;;;;;;;;;5112530;28;20040;-92
2021/09/23 08:52:45;;;;;;;0.55;0.55;;;;;;;;;;5112219;28;20040;-92
2021/09/23 08:55:19;;;;;;;0.10;0.10;;;;;;;;;;5078212;28;20457;-91
2021/09/23 08:57:45;;;;;;;0.10;0.10;;;;;;;;;;5095785;28;20050;-93
2021/09/23 09:00:11;;;;;;;0.10;0.10;;;;;;;;;;5112660;28;20043;-93
2021/09/23 09:02:37;;;;;;;0.10;0.10;;;;;;;;;;5096272;28;20345;-92
2021/09/23 09:05:03;;;;;;;0.10;0.10;;;;;;;;;;5095346;28;20051;-92
2021/09/23 09:07:29;;;;;;;0.20;0.20;;;;;;;;;;5075362;28;20127;-94
2021/09/23 09:10:03;;;;;;;0.10;0.10;;;;;;;;;;5077674;28;20126;-93
2021/09/23 09:12:30;;;;;;;0.10;0.10;;;;;;;;;;5077459;28;20046;-93
2021/09/23 09:14:56;;;;;;;0.10;0.10;;;;;;;;;;5095503;28;20093;-94
2021/09/23 09:17:22;;;;;;;0.20;0.20;;;;;;;;;;5079070;28;20044;-94
2021/09/23 09:19:55;;;;;;;0.10;0.10;;;;;;;;;;5095668;28;20437;-92
2021/09/23 09:22:22;;;;;;;0.15;0.15;;;;;;;;;;5079263;28;20386;-94
2021/09/23 09:24:53;;;;;;;0.20;0.17;;;;;;;;;;5079122;28;20095;-94
2021/09/23 09:27:26;;;;;;;0.20;0.20;;;;;;;;;;5095724;28;20043;-93
2021/09/23 09:29:58;;;;;;;0.20;0.20;;;;;;;;;;5095704;28;20078;-94
2021/09/23 09:32:34;;;;;;;0.10;0.10;;;;;;;;;;5078998;28;20047;-95
2021/09/23 09:35:00;;;;;;;0.10;0.10;;;;;;;;;;5078768;28;20069;-93
2021/09/23 09:37:26;;;;;;;0.10;0.10;;;;;;;;;;5078899;28;20119;-94
2021/09/23 09:39:58;;;;;;;0.22;0.22;;;;;;;;;;5078678;28;20226;-94
2021/09/23 09:42:24;;;;;;;0.20;0.20;;;;;;;;;;5079292;28;20035;-93
2021/09/23 09:44:54;;;;;;;0.30;0.30;;;;;;;;;;5095432;28;20044;-93
2021/09/23 09:47:30;;;;;;;0.25;0.25;;;;;;;;;;5078770;28;20332;-93
2021/09/23 09:49:56;;;;;;;0.10;0.10;;;;;;;;;;5095378;28;20039;-95
2021/09/23 09:52:31;;;;;;;0.20;0.20;;;;;;;;;;5095489;28;20044;-93
2021/09/23 09:55:07;;;;;;;0.10;0.10;;;;;;;;;;5074177;28;20115;-92
2021/09/23 09:57:33;;;;;;;0.20;0.20;;;;;;;;;;5075334;28;20048;-92
2021/09/23 09:59:59;;;;;;;0.10;0.10;;;;;;;;;;5075061;28;20043;-94
2021/09/23 10:02:29;;;;;;;0.10;0.10;;;;;;;;;;5074974;28;20047;-93
2021/09/23 10:04:58;;;;;;;0.10;0.10;;;;;;;;;;5058025;28;20051;-92
2021/09/23 10:07:25;;;;;;;0.20;0.20;;;;;;;;;;5074715;28;20040;-91
2021/09/23 10:09:51;;;;;;;0.13;0.13;;;;;;;;;;5074628;28;20264;-93
2021/09/23 10:12:17;;;;;;;0.10;0.10;;;;;;;;;;5074692;28;20172;-92
2021/09/23 10:14:43;;;;;;;0.20;0.20;;;;;;;;;;5087447;28;20036;-94
2021/09/23 10:17:09;;;;;;;0.10;0.10;;;;;;;;;;5078479;28;20395;-93
2021/09/23 10:19:35;;;;;;;0.30;0.30;;;;;;;;;;5094904;28;20042;-91
2021/09/23 10:22:02;;;;;;;0.10;0.10;;;;;;;;;;5111348;28;20092;-93
2021/09/23 10:24:28;;;;;;;0.20;0.20;;;;;;;;;;5081289;28;20079;-90
2021/09/23 10:26:54;;;;;;;0.10;0.10;;;;;;;;;;5082130;28;20047;-92
2021/09/23 10:29:20;;;;;;;0.20;0.20;;;;;;;;;;5081516;28;20123;-90
2021/09/23 10:31:46;;;;;;;0.20;0.20;;;;;;;;;;5098150;28;20048;-92
2021/09/23 10:34:12;;;;;;;0.10;0.10;;;;;;;;;;5081449;28;20059;-91
2021/09/23 10:36:39;;;;;;;0.10;0.10;;;;;;;;;;5098171;28;20407;-91
2021/09/23 10:39:05;;;;;;;0.10;0.10;;;;;;;;;;5097909;28;20058;-91
2021/09/23 10:41:32;;;;;;;0.20;0.20;;;;;;;;;;5098128;28;20044;-91
2021/09/23 10:43:58;;;;;;;0.10;0.10;;;;;;;;;;5098046;28;20036;-91
2021/09/23 10:46:25;;;;;;;0.25;0.25;;;;;;;;;;5098114;28;20494;-90
2021/09/23 10:48:51;;;;;;;0.10;0.10;;;;;;;;;;5080672;28;20039;-91
2021/09/23 10:51:17;;;;;;;0.10;0.10;;;;;;;;;;5080824;28;20103;-91
2021/09/23 10:53:48;;;;;;;0.10;0.10;;;;;;;;;;5097719;28;20509;-90
2021/09/23 10:56:13;;;;;;;0.20;0.20;;;;;;;;;;5114570;28;20078;-90
2021/09/23 10:58:39;;;;;;;0.10;0.10;;;;;;;;;;5114188;28;20067;-90
2021/09/23 11:01:05;;;;;;;0.10;0.10;;;;;;;;;;5097366;28;20358;-91
2021/09/23 11:03:34;;;;;;;0.10;0.10;;;;;;;;;;5096945;28;20089;-89
2021/09/23 11:06:02;;;;;;;0.10;0.10;;;;;;;;;;5097399;28;20043;-89
2021/09/23 11:08:28;;;;;;;0.10;0.10;;;;;;;;;;5097287;28;20092;-90
2021/09/23 11:10:55;;;;;;;0.10;0.10;;;;;;;;;;5080638;28;20398;-92
2021/09/23 11:13:21;;;;;;;0.30;0.30;;;;;;;;;;5080958;28;20104;-93
2021/09/23 11:15:47;;;;;;;3.35;0.20;;;;;;;;;;5097560;28;20444;-92
2021/09/23 11:18:13;;;;;;;0.10;0.10;;;;;;;;;;5114410;28;20395;-91
2021/09/23 11:20:44;;;;;;;0.20;0.20;;;;;;;;;;5080484;28;20040;-92
2021/09/23 11:23:10;;;;;;;0.10;0.10;;;;;;;;;;5081304;28;20130;-91
2021/09/23 11:25:39;;;;;;;0.10;0.10;;;;;;;;;;5080357;28;20077;-91
2021/09/23 11:28:05;;;;;;;0.22;0.22;;;;;;;;;;5080383;28;20031;-92
2021/09/23 11:30:32;;;;;;;0.10;0.10;;;;;;;;;;5097473;28;20055;-92
2021/09/23 11:33:04;;;;;;;0.10;0.10;;;;;;;;;;5080562;28;20131;-91
2021/09/23 11:35:31;;;;;;;0.10;0.10;;;;;;;;;;5080162;28;20418;-92
2021/09/23 11:37:57;;;;;;;0.10;0.10;;;;;;;;;;5113829;28;20086;-92
2021/09/23 11:40:43;;;;;;;0.10;0.10;;;;;;;;;;5096673;28;20123;-91
2021/09/23 11:43:10;;;;;;;0.10;0.10;;;;;;;;;;5096463;28;20040;-91
2021/09/23 11:45:37;;;;;;;0.10;0.10;;;;;;;;;;5097139;28;20043;-91
2021/09/23 11:48:10;;;;;;;0.10;0.10;;;;;;;;;;5097046;28;20031;-91
2021/09/23 11:50:36;;;;;;;0.30;0.30;;;;;;;;;;5097237;28;20043;-89
2021/09/23 11:53:08;;;;;;;0.20;0.20;;;;;;;;;;5096711;28;20408;-89
2021/09/23 11:55:35;;;;;;;0.10;0.10;;;;;;;;;;5094324;28;20039;-89
2021/09/23 11:58:08;;;;;;;0.10;0.10;;;;;;;;;;5113142;28;20097;-88
2021/09/23 12:00:34;;;;;;;0.10;0.10;;;;;;;;;;5113403;28;20043;-90
2021/09/23 12:03:00;;;;;;;0.10;0.10;;;;;;;;;;5079484;28;20406;-90
2021/09/23 12:05:30;;;;;;;0.10;0.10;;;;;;;;;;5096087;28;20569;-90
2021/09/23 12:07:56;;;;;;;0.10;0.10;;;;;;;;;;5113285;28;20046;-90
2021/09/23 12:10:22;;;;;;;0.10;0.10;;;;;;;;;;5096150;28;20118;-90
2021/09/23 12:12:55;;;;;;;0.10;0.10;;;;;;;;;;5096365;28;20543;-90
2021/09/23 12:15:22;;;;;;;0.10;0.10;;;;;;;;;;5079282;28;20043;-90
2021/09/23 12:18:01;;;;;;;0.10;0.10;;;;;;;;;;5079155;28;20074;-90
2021/09/23 12:20:37;;;;;;;0.20;0.20;;;;;;;;;;5078990;28;20071;-90
2021/09/23 12:23:22;;;;;;;0.10;0.10;;;;;;;;;;5095892;28;20127;-91
2021/09/23 12:26:03;;;;;;;0.10;0.10;;;;;;;;;;5095918;28;20050;-90
2021/09/23 12:28:30;;;;;;;0.20;0.20;;;;;;;;;;5095530;28;20047;-91
2021/09/23 12:31:02;;;;;;;0.10;0.10;;;;;;;;;;5079051;28;20126;-91
2021/09/23 12:33:28;;;;;;;0.10;0.10;;;;;;;;;;5079136;28;20396;-92
2021/09/23 12:36:12;;;;;;;0.10;0.10;;;;;;;;;;5095443;28;20067;-89
2021/09/23 12:38:39;;;;;;;0.10;0.10;;;;;;;;;;5078889;28;20447;-91
2021/09/23 12:41:18;;;;;;;0.10;0.10;;;;;;;;;;5112052;28;20059;-90
2021/09/23 12:43:45;;;;;;;0.10;0.10;;;;;;;;;;5095336;28;20054;-91
2021/09/23 12:46:13;;;;;;;0.20;0.20;;;;;;;;;;5077142;28;20039;-89
2021/09/23 12:48:43;;;;;;;0.10;0.10;;;;;;;;;;5095345;28;20064;-90
2021/09/23 12:51:09;;;;;;;0.10;0.10;;;;;;;;;;5094645;28;20390;-89
2021/09/23 12:53:35;;;;;;;0.15;0.15;;;;;;;;;;5111114;28;20384;-87
2021/09/23 12:56:06;;;;;;;0.10;0.10;;;;;;;;;;5110895;28;20566;-89
2021/09/23 12:58:32;;;;;;;0.10;0.10;;;;;;;;;;5077806;28;20135;-88
2021/09/23 13:00:58;;;;;;;0.10;0.10;;;;;;;;;;5077500;28;20123;-87
2021/09/23 13:03:30;;;;;;;0.20;0.20;;;;;;;;;;5077259;28;20040;-87
2021/09/23 13:06:02;;;;;;;0.10;0.10;;;;;;;;;;5094354;28;20047;-87
2021/09/23 13:08:28;;;;;;;0.10;0.10;;;;;;;;;;5094290;28;20047;-86
2021/09/23 13:11:04;;;;;;;0.10;0.10;;;;;;;;;;5094950;28;20047;-87
2021/09/23 13:13:30;;;;;;;0.10;0.10;;;;;;;;;;5094247;28;20122;-86
2021/09/23 13:15:56;;;;;;;0.20;0.20;;;;;;;;;;5094102;28;20588;-87
2021/09/23 13:18:29;;;;;;;0.10;0.10;;;;;;;;;;5094012;28;20032;-88
2021/09/23 13:20:59;;;;;;;0.30;0.30;;;;;;;;;;5110942;28;20035;-86
2021/09/23 13:23:29;;;;;;;0.10;0.10;;;;;;;;;;5111119;28;20072;-86
2021/09/23 13:25:56;;;;;;;0.10;0.10;;;;;;;;;;5094098;28;20035;-87
2021/09/23 13:28:35;;;;;;;0.68;0.68;;;;;;;;;;5094460;28;20035;-88
2021/09/23 13:31:10;;;;;;;0.13;0.13;;;;;;;;;;5094272;28;20044;-87
2021/09/23 13:33:36;;;;;;;0.10;0.10;;;;;;;;;;5094556;28;20044;-88
2021/09/23 13:36:02;;;;;;;0.20;0.20;;;;;;;;;;5095126;28;20048;-88
2021/09/23 13:38:29;;;;;;;0.10;0.10;;;;;;;;;;5079020;28;20073;-88
2021/09/23 13:40:55;;;;;;;0.52;0.52;;;;;;;;;;5113344;28;20070;-89
2021/09/23 13:43:21;;;;;;;0.20;0.20;;;;;;;;;;5096655;28;20035;-87
2021/09/23 13:45:47;;;;;;;0.10;0.10;;;;;;;;;;5125715;28;20055;-85
2021/09/23 13:48:13;;;;;;;0.10;0.10;;;;;;;;;;5133448;28;20039;-86
2021/09/23 13:50:39;;;;;;;0.20;0.20;;;;;;;;;;5116682;28;20062;-85
2021/09/23 13:53:05;;;;;;;0.10;0.10;;;;;;;;;;5103393;28;20111;-86
2021/09/23 13:55:31;;;;;;;0.15;0.15;;;;;;;;;;5094040;28;20078;-89
2021/09/23 13:57:57;;;;;;;0.10;0.10;;;;;;;;;;5093168;28;20091;-87
2021/09/23 14:00:23;;;;;;;0.10;0.10;;;;;;;;;;5114442;28;20140;-88
2021/09/23 14:02:49;;;;;;;0.40;0.40;;;;;;;;;;5098062;28;20040;-87
2021/09/23 14:05:17;;;;;;;0.20;0.20;;;;;;;;;;5097653;28;20730;-87
2021/09/23 14:07:46;;;;;;;0.20;0.20;;;;;;;;;;5097669;28;20071;-87
2021/09/23 14:10:12;;;;;;;0.10;0.10;;;;;;;;;;5081581;28;20039;-86
2021/09/23 14:12:38;;;;;;;0.32;0.32;;;;;;;;;;5097881;28;20052;-88
2021/09/23 14:15:05;;;;;;;0.20;0.20;;;;;;;;;;5097423;28;20045;-85
2021/09/23 14:17:31;;;;;;;0.10;0.10;;;;;;;;;;5114589;28;20039;-87
2021/09/23 14:19:57;;;;;;;0.20;0.20;;;;;;;;;;5097788;28;20046;-87
2021/09/23 14:22:24;;;;;;;0.10;0.10;;;;;;;;;;5114567;28;20122;-89
2021/09/23 14:24:50;;;;;;;0.20;0.20;;;;;;;;;;5081107;28;20039;-89
2021/09/23 14:27:17;;;;;;;0.10;0.10;;;;;;;;;;5114029;28;20074;-87
2021/09/23 14:29:42;;;;;;;0.10;0.10;;;;;;;;;;5113660;28;20046;-87
2021/09/23 14:32:09;;;;;;;0.10;0.10;;;;;;;;;;5113866;28;20126;-87
2021/09/23 14:34:35;;;;;;;0.10;0.10;;;;;;;;;;5097176;28;20039;-89
2021/09/23 14:37:01;;;;;;;0.10;0.10;;;;;;;;;;5114205;28;20431;-87
2021/09/23 14:39:27;;;;;;;3.85;0.40;;;;;;;;;;5097249;28;20036;-87
2021/09/23 14:41:53;;;;;;;0.10;0.10;;;;;;;;;;5097204;28;20043;-86
2021/09/23 14:44:19;;;;;;;0.10;0.10;;;;;;;;;;5114088;28;20036;-88